sensor_id;sensor_type;location;lat;lon;timestamp;pressure;altitude;pressure_sealevel;temperature;humidity
6565;BME280;3316;44.118;27.258;2023-07-20T00:02:15;100292.66;;;27.53;94.61
6565;BME280;3316;44.118;27.258;2023-07-20T00:04:41;100297.22;;;27.73;92.95
6565;BME280;3316;44.118;27.258;2023-07-20T00:07:06;100277.50;;;27.61;93.05
6565;BME280;3316;44.118;27.258;2023-07-20T00:09:32;100266.41;;;27.64;92.52
6565;BME280;3316;44.118;27.258;2023-07-20T00:11:57;100264.97;;;27.60;92.90
6565;BME280;3316;44.118;27.258;2023-07-20T00:14:25;100285.09;;;27.67;93.38
6565;BME280;3316;44.118;27.258;2023-07-20T00:16:51;100274.66;;;27.63;93.59
6565;BME280;3316;44.118;27.258;2023-07-20T00:19:25;100266.41;;;27.64;93.63
6565;BME280;3316;44.118;27.258;2023-07-20T00:21:52;100260.91;;;27.66;93.80
6565;BME280;3316;44.118;27.258;2023-07-20T00:24:18;100201.16;;;27.27;93.83
6565;BME280;3316;44.118;27.258;2023-07-20T00:26:43;100253.38;;;27.49;93.91
6565;BME280;3316;44.118;27.258;2023-07-20T00:29:09;100256.28;;;27.57;93.56
6565;BME280;3316;44.118;27.258;2023-07-20T00:31:35;100252.69;;;27.56;93.18
6565;BME280;3316;44.118;27.258;2023-07-20T00:34:02;100248.44;;;27.54;92.84
6565;BME280;3316;44.118;27.258;2023-07-20T00:36:28;100247.38;;;27.66;92.31
6565;BME280;3316;44.118;27.258;2023-07-20T00:38:53;100249.94;;;27.67;91.98
6565;BME280;3316;44.118;27.258;2023-07-20T00:41:19;100251.25;;;27.73;92.00
6565;BME280;3316;44.118;27.258;2023-07-20T00:43:44;100241.38;;;27.62;91.68
6565;BME280;3316;44.118;27.258;2023-07-20T00:46:10;100256.31;;;27.66;93.44
6565;BME280;3316;44.118;27.258;2023-07-20T00:48:36;100253.31;;;27.60;93.04
6565;BME280;3316;44.118;27.258;2023-07-20T00:51:02;100249.56;;;27.51;92.89
6565;BME280;3316;44.118;27.258;2023-07-20T00:53:28;100262.63;;;27.46;93.74
6565;BME280;3316;44.118;27.258;2023-07-20T00:55:54;100262.53;;;27.37;94.60
6565;BME280;3316;44.118;27.258;2023-07-20T00:58:20;100255.56;;;27.23;95.41
6565;BME280;3316;44.118;27.258;2023-07-20T01:00:45;100266.06;;;27.16;96.64
6565;BME280;3316;44.118;27.258;2023-07-20T01:03:12;100296.28;;;27.10;97.45
6565;BME280;3316;44.118;27.258;2023-07-20T01:06:18;100311.16;;;26.94;99.23
6565;BME280;3316;44.118;27.258;2023-07-20T01:08:42;100316.97;;;26.89;99.38
6565;BME280;3316;44.118;27.258;2023-07-20T01:11:43;100330.47;;;26.78;100.00
6565;BME280;3316;44.118;27.258;2023-07-20T01:14:12;100332.56;;;26.75;99.98
6565;BME280;3316;44.118;27.258;2023-07-20T01:16:39;100340.78;;;26.84;99.25
6565;BME280;3316;44.118;27.258;2023-07-20T01:19:04;100313.44;;;26.78;98.95
6565;BME280;3316;44.118;27.258;2023-07-20T01:24:41;100321.88;;;26.95;98.30
6565;BME280;3316;44.118;27.258;2023-07-20T01:33:01;100340.25;;;27.01;100.00
6565;BME280;3316;44.118;27.258;2023-07-20T01:35:29;100334.88;;;27.01;100.00
6565;BME280;3316;44.118;27.258;2023-07-20T01:37:55;100328.97;;;26.96;100.00
6565;BME280;3316;44.118;27.258;2023-07-20T01:40:23;100332.53;;;26.97;100.00
6565;BME280;3316;44.118;27.258;2023-07-20T01:42:51;100295.66;;;26.75;100.00
6565;BME280;3316;44.118;27.258;2023-07-20T01:45:17;100329.25;;;26.93;100.00
6565;BME280;3316;44.118;27.258;2023-07-20T01:47:42;100337.94;;;26.97;100.00
6565;BME280;3316;44.118;27.258;2023-07-20T01:50:09;100335.59;;;26.92;100.00
6565;BME280;3316;44.118;27.258;2023-07-20T01:52:34;100328.88;;;26.87;100.00
6565;BME280;3316;44.118;27.258;2023-07-20T01:55:00;100314.78;;;26.83;100.00
6565;BME280;3316;44.118;27.258;2023-07-20T01:57:25;100319.69;;;26.78;100.00
6565;BME280;3316;44.118;27.258;2023-07-20T01:59:50;100330.97;;;26.83;100.00
6565;BME280;3316;44.118;27.258;2023-07-20T02:02:16;100329.63;;;26.78;100.00
6565;BME280;3316;44.118;27.258;2023-07-20T02:04:42;100313.44;;;26.78;100.00
6565;BME280;3316;44.118;27.258;2023-07-20T02:07:07;100318.22;;;26.85;100.00
6565;BME280;3316;44.118;27.258;2023-07-20T02:09:33;100317.22;;;26.86;100.00
6565;BME280;3316;44.118;27.258;2023-07-20T02:11:58;100323.09;;;26.91;100.00
6565;BME280;3316;44.118;27.258;2023-07-20T02:14:23;100322.38;;;26.89;100.00
6565;BME280;3316;44.118;27.258;2023-07-20T02:16:49;100311.56;;;26.78;100.00
6565;BME280;3316;44.118;27.258;2023-07-20T02:19:19;100322.97;;;26.93;100.00
6565;BME280;3316;44.118;27.258;2023-07-20T02:21:44;100311.56;;;26.89;100.00
6565;BME280;3316;44.118;27.258;2023-07-20T02:24:11;100311.94;;;26.85;100.00
6565;BME280;3316;44.118;27.258;2023-07-20T02:26:37;100275.53;;;26.68;100.00
6565;BME280;3316;44.118;27.258;2023-07-20T02:29:02;100315.09;;;26.90;100.00
6565;BME280;3316;44.118;27.258;2023-07-20T02:31:30;100311.06;;;26.84;100.00
6565;BME280;3316;44.118;27.258;2023-07-20T02:33:55;100303.06;;;26.94;100.00
6565;BME280;3316;44.118;27.258;2023-07-20T02:36:21;100309.84;;;26.88;100.00
6565;BME280;3316;44.118;27.258;2023-07-20T02:38:46;100317.22;;;26.86;100.00
6565;BME280;3316;44.118;27.258;2023-07-20T02:41:13;100302.47;;;26.90;100.00
6565;BME280;3316;44.118;27.258;2023-07-20T02:43:38;100288.59;;;26.95;100.00
6565;BME280;3316;44.118;27.258;2023-07-20T02:46:04;100266.91;;;26.74;100.00
6565;BME280;3316;44.118;27.258;2023-07-20T02:48:29;100284.56;;;26.89;100.00
6565;BME280;3316;44.118;27.258;2023-07-20T02:50:55;100267.41;;;26.79;100.00
6565;BME280;3316;44.118;27.258;2023-07-20T02:53:20;100292.91;;;26.97;100.00
6565;BME280;3316;44.118;27.258;2023-07-20T02:55:45;100309.03;;;27.08;100.00
6565;BME280;3316;44.118;27.258;2023-07-20T02:58:11;100284.78;;;26.97;100.00
6565;BME280;3316;44.118;27.258;2023-07-20T03:00:36;100282.94;;;26.98;100.00
6565;BME280;3316;44.118;27.258;2023-07-20T03:03:02;100260.00;;;26.92;100.00
6565;BME280;3316;44.118;27.258;2023-07-20T03:05:27;100260.50;;;26.97;100.00
6565;BME280;3316;44.118;27.258;2023-07-20T03:07:53;100248.13;;;27.15;100.00
6565;BME280;3316;44.118;27.258;2023-07-20T03:10:18;100253.28;;;27.18;100.00
6565;BME280;3316;44.118;27.258;2023-07-20T03:12:44;100243.06;;;27.22;100.00
6565;BME280;3316;44.118;27.258;2023-07-20T03:15:10;100212.81;;;27.28;100.00
6565;BME280;3316;44.118;27.258;2023-07-20T03:17:35;100212.19;;;27.36;100.00
6565;BME280;3316;44.118;27.258;2023-07-20T03:20:01;100203.28;;;27.45;100.00
6565;BME280;3316;44.118;27.258;2023-07-20T03:22:26;100139.09;;;27.37;100.00
6565;BME280;3316;44.118;27.258;2023-07-20T03:24:52;100188.28;;;27.91;100.00
6565;BME280;3316;44.118;27.258;2023-07-20T03:27:18;100175.59;;;28.12;100.00
6565;BME280;3316;44.118;27.258;2023-07-20T03:29:43;100162.53;;;28.37;100.00
6565;BME280;3316;44.118;27.258;2023-07-20T03:32:09;100146.16;;;28.38;100.00
6565;BME280;3316;44.118;27.258;2023-07-20T03:34:35;100171.16;;;28.61;100.00
6565;BME280;3316;44.118;27.258;2023-07-20T03:37:00;100215.97;;;28.44;100.00
6565;BME280;3316;44.118;27.258;2023-07-20T03:39:26;100265.09;;;28.30;100.00
6565;BME280;3316;44.118;27.258;2023-07-20T03:41:52;100272.22;;;27.80;100.00
6565;BME280;3316;44.118;27.258;2023-07-20T03:44:17;100237.44;;;27.46;100.00
6565;BME280;3316;44.118;27.258;2023-07-20T03:46:43;100229.00;;;27.39;100.00
6565;BME280;3316;44.118;27.258;2023-07-20T03:49:09;100250.94;;;27.46;100.00
6565;BME280;3316;44.118;27.258;2023-07-20T03:51:35;100232.41;;;27.62;100.00
6565;BME280;3316;44.118;27.258;2023-07-20T03:54:01;100224.13;;;27.84;100.00
6565;BME280;3316;44.118;27.258;2023-07-20T03:56:27;100236.28;;;28.20;100.00
6565;BME280;3316;44.118;27.258;2023-07-20T03:58:52;100264.63;;;28.55;100.00
6565;BME280;3316;44.118;27.258;2023-07-20T04:01:18;100255.13;;;28.40;100.00
6565;BME280;3316;44.118;27.258;2023-07-20T04:03:43;100282.72;;;28.34;100.00
6565;BME280;3316;44.118;27.258;2023-07-20T04:06:09;100280.72;;;27.76;100.00
6565;BME280;3316;44.118;27.258;2023-07-20T04:08:35;100291.72;;;27.43;100.00
6565;BME280;3316;44.118;27.258;2023-07-20T04:11:04;100296.28;;;27.10;100.00
6565;BME280;3316;44.118;27.258;2023-07-20T04:13:29;100317.06;;;26.99;100.00
6565;BME280;3316;44.118;27.258;2023-07-20T04:16:00;100319.78;;;26.88;100.00
6565;BME280;3316;44.118;27.258;2023-07-20T04:18:25;100335.03;;;26.78;100.00
6565;BME280;3316;44.118;27.258;2023-07-20T04:20:51;100337.09;;;26.85;100.00
6565;BME280;3316;44.118;27.258;2023-07-20T04:23:17;100323.59;;;26.85;100.00
6565;BME280;3316;44.118;27.258;2023-07-20T04:25:42;100331.06;;;26.93;100.00
6565;BME280;3316;44.118;27.258;2023-07-20T04:28:08;100309.66;;;27.44;100.00
6565;BME280;3316;44.118;27.258;2023-07-20T04:30:36;100328.41;;;28.18;100.00
6565;BME280;3316;44.118;27.258;2023-07-20T04:33:05;100322.97;;;28.78;100.00
6565;BME280;3316;44.118;27.258;2023-07-20T04:35:53;100316.63;;;29.37;100.00
6565;BME280;3316;44.118;27.258;2023-07-20T04:38:20;100316.06;;;29.43;100.00
6565;BME280;3316;44.118;27.258;2023-07-20T04:40:49;100326.34;;;29.77;100.00
6565;BME280;3316;44.118;27.258;2023-07-20T04:43:16;100326.16;;;29.69;100.00
6565;BME280;3316;44.118;27.258;2023-07-20T04:45:42;100312.66;;;29.22;100.00
6565;BME280;3316;44.118;27.258;2023-07-20T04:48:12;100331.91;;;28.69;100.00
6565;BME280;3316;44.118;27.258;2023-07-20T04:50:39;100321.44;;;28.25;100.00
6565;BME280;3316;44.118;27.258;2023-07-20T04:53:05;100325.81;;;28.16;100.00
6565;BME280;3316;44.118;27.258;2023-07-20T04:55:30;100309.16;;;27.91;100.00
6565;BME280;3316;44.118;27.258;2023-07-20T04:57:59;100335.69;;;27.97;100.00
6565;BME280;3316;44.118;27.258;2023-07-20T05:00:25;100335.22;;;28.12;100.00
6565;BME280;3316;44.118;27.258;2023-07-20T05:02:50;100334.56;;;28.30;100.00
6565;BME280;3316;44.118;27.258;2023-07-20T05:05:16;100350.06;;;28.88;100.00
6565;BME280;3316;44.118;27.258;2023-07-20T05:07:41;100344.16;;;29.23;100.00
6565;BME280;3316;44.118;27.258;2023-07-20T05:10:07;100353.63;;;29.76;100.00
6565;BME280;3316;44.118;27.258;2023-07-20T05:12:33;100339.31;;;29.64;100.00
6565;BME280;3316;44.118;27.258;2023-07-20T05:14:58;100327.63;;;29.26;100.00
6565;BME280;3316;44.118;27.258;2023-07-20T05:17:23;100341.75;;;29.20;100.00
6565;BME280;3316;44.118;27.258;2023-07-20T05:19:50;100365.91;;;28.92;100.00
6565;BME280;3316;44.118;27.258;2023-07-20T05:22:16;100378.38;;;28.74;100.00
6565;BME280;3316;44.118;27.258;2023-07-20T05:24:41;100376.06;;;28.60;100.00
6565;BME280;3316;44.118;27.258;2023-07-20T05:27:07;100390.38;;;28.51;100.00
6565;BME280;3316;44.118;27.258;2023-07-20T05:29:32;100393.38;;;28.28;100.00
6565;BME280;3316;44.118;27.258;2023-07-20T05:31:58;100379.56;;;27.89;100.00
6565;BME280;3316;44.118;27.258;2023-07-20T05:34:23;100392.78;;;27.83;100.00
6565;BME280;3316;44.118;27.258;2023-07-20T05:37:11;100407.19;;;27.72;100.00
6565;BME280;3316;44.118;27.258;2023-07-20T05:39:36;100403.34;;;27.54;100.00
6565;BME280;3316;44.118;27.258;2023-07-20T05:42:01;100395.00;;;27.57;100.00
6565;BME280;3316;44.118;27.258;2023-07-20T05:44:27;100393.69;;;27.41;100.00
6565;BME280;3316;44.118;27.258;2023-07-20T05:46:52;100332.03;;;26.92;100.00
6565;BME280;3316;44.118;27.258;2023-07-20T05:49:18;100380.50;;;27.04;100.00
6565;BME280;3316;44.118;27.258;2023-07-20T05:51:43;100364.22;;;26.73;100.00
6565;BME280;3316;44.118;27.258;2023-07-20T05:54:08;100384.00;;;26.73;100.00
6565;BME280;3316;44.118;27.258;2023-07-20T05:56:34;100375.97;;;26.61;100.00
6565;BME280;3316;44.118;27.258;2023-07-20T05:58:59;100386.06;;;26.70;100.00
6565;BME280;3316;44.118;27.258;2023-07-20T06:01:25;100376.00;;;26.50;100.00
6565;BME280;3316;44.118;27.258;2023-07-20T06:03:52;100391.81;;;26.65;100.00
6565;BME280;3316;44.118;27.258;2023-07-20T06:06:18;100386.44;;;26.54;100.00
6565;BME280;3316;44.118;27.258;2023-07-20T06:08:44;100385.44;;;26.55;100.00
6565;BME280;3316;44.118;27.258;2023-07-20T06:11:09;100370.72;;;26.59;100.00
6565;BME280;3316;44.118;27.258;2023-07-20T06:13:35;100355.91;;;26.76;100.00
6565;BME280;3316;44.118;27.258;2023-07-20T06:16:00;100370.97;;;26.78;100.00
6565;BME280;3316;44.118;27.258;2023-07-20T06:18:26;100371.56;;;26.93;100.00
6565;BME280;3316;44.118;27.258;2023-07-20T06:20:52;100357.47;;;26.89;100.00
6565;BME280;3316;44.118;27.258;2023-07-20T06:23:19;100359.28;;;27.00;100.00
6565;BME280;3316;44.118;27.258;2023-07-20T06:25:45;100373.22;;;27.16;100.00
6565;BME280;3316;44.118;27.258;2023-07-20T06:28:11;100370.06;;;27.11;100.00
6565;BME280;3316;44.118;27.258;2023-07-20T06:30:37;100370.06;;;27.11;100.00
6565;BME280;3316;44.118;27.258;2023-07-20T06:33:02;100367.47;;;27.09;100.00
6565;BME280;3316;44.118;27.258;2023-07-20T06:35:28;100381.50;;;27.03;100.00
6565;BME280;3316;44.118;27.258;2023-07-20T06:37:53;100383.00;;;26.85;100.00
6565;BME280;3316;44.118;27.258;2023-07-20T06:40:19;100391.69;;;26.67;100.00
6565;BME280;3316;44.118;27.258;2023-07-20T06:42:44;100372.06;;;26.31;100.00
6565;BME280;3316;44.118;27.258;2023-07-20T06:45:10;100378.66;;;26.27;100.00
6565;BME280;3316;44.118;27.258;2023-07-20T06:47:38;100393.28;;;26.25;100.00
6565;BME280;3316;44.118;27.258;2023-07-20T06:50:05;100375.25;;;26.36;100.00
6565;BME280;3316;44.118;27.258;2023-07-20T06:52:31;100345.69;;;26.13;100.00
6565;BME280;3316;44.118;27.258;2023-07-20T06:54:57;100368.31;;;25.88;100.00
6565;BME280;3316;44.118;27.258;2023-07-20T06:57:22;100365.34;;;25.80;100.00
6565;BME280;3316;44.118;27.258;2023-07-20T06:59:48;100383.97;;;25.83;100.00
6565;BME280;3316;44.118;27.258;2023-07-20T07:02:13;100374.19;;;25.93;100.00
6565;BME280;3316;44.118;27.258;2023-07-20T07:04:39;100344.19;;;25.63;100.00
6565;BME280;3316;44.118;27.258;2023-07-20T07:07:05;100393.72;;;25.73;100.00
6565;BME280;3316;44.118;27.258;2023-07-20T07:09:30;100382.88;;;25.51;100.00
6565;BME280;3316;44.118;27.258;2023-07-20T07:11:56;100412.31;;;25.65;100.00
6565;BME280;3316;44.118;27.258;2023-07-20T07:14:22;100415.75;;;25.43;100.00
6565;BME280;3316;44.118;27.258;2023-07-20T07:16:48;100409.75;;;25.40;100.00
6565;BME280;3316;44.118;27.258;2023-07-20T07:19:13;100422.31;;;25.52;100.00
6565;BME280;3316;44.118;27.258;2023-07-20T07:21:38;100411.06;;;25.58;100.00
6565;BME280;3316;44.118;27.258;2023-07-20T07:24:05;100416.75;;;25.66;100.00
6565;BME280;3316;44.118;27.258;2023-07-20T07:26:32;100392.28;;;25.80;100.00
6565;BME280;3316;44.118;27.258;2023-07-20T07:28:58;100399.03;;;25.86;100.00
6565;BME280;3316;44.118;27.258;2023-07-20T07:31:25;100392.56;;;25.88;100.00
6565;BME280;3316;44.118;27.258;2023-07-20T07:33:50;100378.28;;;25.75;100.00
6565;BME280;3316;44.118;27.258;2023-07-20T07:36:16;100408.25;;;26.29;100.00
6565;BME280;3316;44.118;27.258;2023-07-20T07:38:41;100400.28;;;26.50;100.00
6565;BME280;3316;44.118;27.258;2023-07-20T07:41:07;100395.16;;;26.80;100.00
6565;BME280;3316;44.118;27.258;2023-07-20T07:43:33;100399.59;;;27.23;100.00
6565;BME280;3316;44.118;27.258;2023-07-20T07:46:00;100407.53;;;26.93;100.00
6565;BME280;3316;44.118;27.258;2023-07-20T07:48:25;100398.06;;;26.88;100.00
6565;BME280;3316;44.118;27.258;2023-07-20T07:50:51;100416.72;;;27.13;100.00
6565;BME280;3316;44.118;27.258;2023-07-20T07:53:16;100382.34;;;27.04;100.00
6565;BME280;3316;44.118;27.258;2023-07-20T07:55:43;100403.19;;;27.24;100.00
6565;BME280;3316;44.118;27.258;2023-07-20T07:58:08;100398.34;;;27.50;100.00
6565;BME280;3316;44.118;27.258;2023-07-20T08:00:34;100393.03;;;27.80;100.00
6565;BME280;3316;44.118;27.258;2023-07-20T08:03:00;100407.63;;;28.09;100.00
6565;BME280;3316;44.118;27.258;2023-07-20T08:05:25;100404.50;;;28.34;100.00
6565;BME280;3316;44.118;27.258;2023-07-20T08:07:51;100413.00;;;28.71;100.00
6565;BME280;3316;44.118;27.258;2023-07-20T08:10:17;100428.53;;;28.69;100.00
6565;BME280;3316;44.118;27.258;2023-07-20T08:12:42;100421.19;;;28.80;100.00
6565;BME280;3316;44.118;27.258;2023-07-20T08:15:10;100432.53;;;28.74;100.00
6565;BME280;3316;44.118;27.258;2023-07-20T08:17:36;100370.47;;;27.90;100.00
6565;BME280;3316;44.118;27.258;2023-07-20T08:20:02;100419.75;;;28.56;100.00
6565;BME280;3316;44.118;27.258;2023-07-20T08:22:27;100423.00;;;28.80;100.00
6565;BME280;3316;44.118;27.258;2023-07-20T08:24:53;100415.97;;;29.08;100.00
6565;BME280;3316;44.118;27.258;2023-07-20T08:27:18;100396.31;;;29.06;100.00
6565;BME280;3316;44.118;27.258;2023-07-20T08:29:44;100410.81;;;28.95;100.00
6565;BME280;3316;44.118;27.258;2023-07-20T08:32:09;100410.94;;;28.93;100.00
6565;BME280;3316;44.118;27.258;2023-07-20T08:34:35;100413.81;;;29.70;100.00
6565;BME280;3316;44.118;27.258;2023-07-20T08:37:00;100358.69;;;30.08;100.00
6565;BME280;3316;44.118;27.258;2023-07-20T08:39:25;100417.91;;;30.50;100.00
6565;BME280;3316;44.118;27.258;2023-07-20T08:41:51;100417.00;;;30.96;100.00
6565;BME280;3316;44.118;27.258;2023-07-20T08:44:20;100409.06;;;31.57;93.66
6565;BME280;3316;44.118;27.258;2023-07-20T08:46:46;100414.16;;;31.42;92.67
6565;BME280;3316;44.118;27.258;2023-07-20T08:49:13;100415.69;;;31.27;93.05
6565;BME280;3316;44.118;27.258;2023-07-20T08:51:39;100395.03;;;31.17;93.12
6565;BME280;3316;44.118;27.258;2023-07-20T08:54:06;100402.53;;;31.85;89.28
6565;BME280;3316;44.118;27.258;2023-07-20T08:56:33;100402.81;;;32.17;87.23
6565;BME280;3316;44.118;27.258;2023-07-20T08:58:59;100400.66;;;32.03;86.30
6565;BME280;3316;44.118;27.258;2023-07-20T09:01:26;100404.00;;;31.80;88.23
6565;BME280;3316;44.118;27.258;2023-07-20T09:03:52;100409.44;;;31.80;88.92
6565;BME280;3316;44.118;27.258;2023-07-20T09:06:17;100405.03;;;31.96;88.42
6565;BME280;3316;44.118;27.258;2023-07-20T09:08:43;100399.53;;;32.57;85.03
6565;BME280;3316;44.118;27.258;2023-07-20T09:11:11;100399.28;;;33.10;80.42
6565;BME280;3316;44.118;27.258;2023-07-20T09:13:37;100401.66;;;33.13;79.49
6565;BME280;3316;44.118;27.258;2023-07-20T09:16:03;100359.75;;;33.06;77.38
6565;BME280;3316;44.118;27.258;2023-07-20T09:18:31;100400.09;;;33.02;79.30
6565;BME280;3316;44.118;27.258;2023-07-20T09:21:06;100395.41;;;33.28;80.59
6565;BME280;3316;44.118;27.258;2023-07-20T09:23:37;100409.50;;;33.08;83.65
6565;BME280;3316;44.118;27.258;2023-07-20T09:26:10;100412.09;;;32.84;85.58
6565;BME280;3316;44.118;27.258;2023-07-20T09:29:05;100400.66;;;32.80;87.45
6565;BME280;3316;44.118;27.258;2023-07-20T09:31:32;100395.34;;;32.71;86.36
6565;BME280;3316;44.118;27.258;2023-07-20T09:33:58;100391.19;;;32.59;84.83
6565;BME280;3316;44.118;27.258;2023-07-20T09:36:23;100396.28;;;32.36;86.75
6565;BME280;3316;44.118;27.258;2023-07-20T09:38:49;100394.13;;;32.65;85.88
6565;BME280;3316;44.118;27.258;2023-07-20T09:41:15;100396.50;;;32.68;85.95
6565;BME280;3316;44.118;27.258;2023-07-20T09:43:41;100388.59;;;32.83;86.28
6565;BME280;3316;44.118;27.258;2023-07-20T09:46:07;100384.28;;;33.06;85.15
6565;BME280;3316;44.118;27.258;2023-07-20T09:48:33;100387.56;;;33.25;84.58
6565;BME280;3316;44.118;27.258;2023-07-20T09:50:58;100391.28;;;33.16;81.75
6565;BME280;3316;44.118;27.258;2023-07-20T09:53:25;100389.25;;;33.18;80.77
6565;BME280;3316;44.118;27.258;2023-07-20T09:55:52;100372.91;;;33.35;77.68
6565;BME280;3316;44.118;27.258;2023-07-20T09:58:17;100384.06;;;33.57;75.44
6565;BME280;3316;44.118;27.258;2023-07-20T10:00:44;100383.06;;;33.58;76.28
6565;BME280;3316;44.118;27.258;2023-07-20T10:03:14;100370.09;;;33.60;74.63
6565;BME280;3316;44.118;27.258;2023-07-20T10:05:47;100370.94;;;33.69;74.99
6565;BME280;3316;44.118;27.258;2023-07-20T10:08:14;100326.09;;;33.71;68.88
6565;BME280;3316;44.118;27.258;2023-07-20T10:10:42;100354.25;;;33.88;67.07
6565;BME280;3316;44.118;27.258;2023-07-20T10:13:17;100356.25;;;34.18;61.46
6565;BME280;3316;44.118;27.258;2023-07-20T10:15:54;100347.84;;;34.36;60.14
6565;BME280;3316;44.118;27.258;2023-07-20T10:18:29;100341.84;;;34.56;56.42
6565;BME280;3316;44.118;27.258;2023-07-20T10:20:56;100344.25;;;34.43;54.82
6565;BME280;3316;44.118;27.258;2023-07-20T10:23:26;100340.56;;;34.75;54.34
6565;BME280;3316;44.118;27.258;2023-07-20T10:25:55;100341.03;;;34.86;50.46
6565;BME280;3316;44.118;27.258;2023-07-20T10:28:21;100330.41;;;34.91;52.72
6565;BME280;3316;44.118;27.258;2023-07-20T10:30:48;100324.19;;;34.67;50.43
6565;BME280;3316;44.118;27.258;2023-07-20T10:33:15;100334.34;;;34.89;48.77
6565;BME280;3316;44.118;27.258;2023-07-20T10:36:03;100301.13;;;34.69;49.47
6565;BME280;3316;44.118;27.258;2023-07-20T10:38:39;100322.72;;;34.95;49.36
6565;BME280;3316;44.118;27.258;2023-07-20T10:41:19;100333.22;;;35.14;48.22
6565;BME280;3316;44.118;27.258;2023-07-20T10:43:45;100320.75;;;35.12;49.00
6565;BME280;3316;44.118;27.258;2023-07-20T10:46:12;100331.06;;;35.32;47.62
6565;BME280;3316;44.118;27.258;2023-07-20T10:48:58;100331.53;;;35.36;50.05
6565;BME280;3316;44.118;27.258;2023-07-20T10:51:24;100313.44;;;35.27;49.73
6565;BME280;3316;44.118;27.258;2023-07-20T10:53:50;100314.19;;;35.43;49.32
6565;BME280;3316;44.118;27.258;2023-07-20T10:56:20;100319.59;;;35.59;46.97
6565;BME280;3316;44.118;27.258;2023-07-20T10:58:46;100313.06;;;35.38;46.71
6565;BME280;3316;44.118;27.258;2023-07-20T11:01:16;100312.50;;;35.20;47.52
6565;BME280;3316;44.118;27.258;2023-07-20T11:03:43;100283.59;;;35.17;46.99
6565;BME280;3316;44.118;27.258;2023-07-20T11:09:11;100302.75;;;35.48;47.99
6565;BME280;3316;44.118;27.258;2023-07-20T11:11:40;100289.88;;;35.48;48.92
6565;BME280;3316;44.118;27.258;2023-07-20T11:14:07;100279.00;;;35.63;47.47
6565;BME280;3316;44.118;27.258;2023-07-20T11:19:02;100261.66;;;35.70;45.66
6565;BME280;3316;44.118;27.258;2023-07-20T11:21:28;100247.16;;;35.47;46.30
6565;BME280;3316;44.118;27.258;2023-07-20T11:23:55;100247.84;;;35.64;45.72
6565;BME280;3316;44.118;27.258;2023-07-20T11:26:21;100263.22;;;36.02;45.87
6565;BME280;3316;44.118;27.258;2023-07-20T11:28:49;100250.03;;;36.20;45.12
6565;BME280;3316;44.118;27.258;2023-07-20T11:31:17;100266.72;;;36.11;43.66
6565;BME280;3316;44.118;27.258;2023-07-20T11:33:42;100264.84;;;35.97;43.32
6565;BME280;3316;44.118;27.258;2023-07-20T11:36:08;100264.75;;;36.05;44.42
6565;BME280;3316;44.118;27.258;2023-07-20T11:38:34;100255.28;;;35.93;42.73
6565;BME280;3316;44.118;27.258;2023-07-20T11:40:59;100252.38;;;35.94;44.34
6565;BME280;3316;44.118;27.258;2023-07-20T11:43:25;100240.09;;;36.05;43.84
6565;BME280;3316;44.118;27.258;2023-07-20T11:45:51;100240.09;;;36.05;44.02
6565;BME280;3316;44.118;27.258;2023-07-20T11:48:17;100238.38;;;36.04;43.66
6565;BME280;3316;44.118;27.258;2023-07-20T11:50:42;100239.88;;;35.92;43.25
6565;BME280;3316;44.118;27.258;2023-07-20T11:53:08;100227.91;;;36.07;43.76
6565;BME280;3316;44.118;27.258;2023-07-20T11:55:34;100229.31;;;36.18;42.92
6565;BME280;3316;44.118;27.258;2023-07-20T11:58:07;100229.31;;;36.18;42.99
6565;BME280;3316;44.118;27.258;2023-07-20T12:00:34;100223.25;;;36.22;43.94
6565;BME280;3316;44.118;27.258;2023-07-20T12:03:00;100221.28;;;36.31;43.50
6565;BME280;3316;44.118;27.258;2023-07-20T12:05:26;100216.38;;;36.41;43.26
6565;BME280;3316;44.118;27.258;2023-07-20T12:07:52;100233.84;;;36.40;43.98
6565;BME280;3316;44.118;27.258;2023-07-20T12:10:26;100226.09;;;36.29;44.80
6565;BME280;3316;44.118;27.258;2023-07-20T12:12:53;100213.16;;;36.37;45.31
6565;BME280;3316;44.118;27.258;2023-07-20T12:17:45;100214.47;;;36.27;46.24
6565;BME280;3316;44.118;27.258;2023-07-20T12:20:11;100202.28;;;36.29;45.14
6565;BME280;3316;44.118;27.258;2023-07-20T12:22:40;100227.16;;;36.28;45.82
6565;BME280;3316;44.118;27.258;2023-07-20T12:25:06;100220.31;;;36.38;46.02
6565;BME280;3316;44.118;27.258;2023-07-20T12:27:36;100209.66;;;36.43;45.66
6565;BME280;3316;44.118;27.258;2023-07-20T12:30:02;100198.22;;;36.40;44.56
6565;BME280;3316;44.118;27.258;2023-07-20T12:32:29;100214.81;;;36.38;45.95
6565;BME280;3316;44.118;27.258;2023-07-20T12:34:55;100205.03;;;36.29;44.99
6565;BME280;3316;44.118;27.258;2023-07-20T12:37:20;100224.66;;;36.33;44.63
6565;BME280;3316;44.118;27.258;2023-07-20T12:39:45;100182.75;;;36.18;46.85
6565;BME280;3316;44.118;27.258;2023-07-20T12:42:12;100225.03;;;36.59;46.02
6565;BME280;3316;44.118;27.258;2023-07-20T12:44:40;100222.31;;;36.59;45.14
6565;BME280;3316;44.118;27.258;2023-07-20T12:47:05;100223.41;;;36.64;45.35
6565;BME280;3316;44.118;27.258;2023-07-20T12:49:31;100215.19;;;36.64;44.28
6565;BME280;3316;44.118;27.258;2023-07-20T12:51:56;100218.06;;;36.92;44.19
6565;BME280;3316;44.118;27.258;2023-07-20T12:54:22;100213.09;;;36.67;45.70
6565;BME280;3316;44.118;27.258;2023-07-20T12:56:47;100216.47;;;36.47;44.28
6565;BME280;3316;44.118;27.258;2023-07-20T12:59:13;100214.56;;;36.48;43.12
6565;BME280;3316;44.118;27.258;2023-07-20T13:01:38;100201.81;;;36.55;43.66
6565;BME280;3316;44.118;27.258;2023-07-20T13:04:06;100207.38;;;36.47;42.57
6565;BME280;3316;44.118;27.258;2023-07-20T13:06:34;100216.50;;;36.69;41.93
6565;BME280;3316;44.118;27.258;2023-07-20T13:09:00;100212.25;;;36.66;41.75
6565;BME280;3316;44.118;27.258;2023-07-20T13:11:25;100205.56;;;36.54;42.27